Photometre #842[NE_1.6] Amsterdam_Island AOT

File : 20200924_842.hum

24/09/2020,01:22:11,TEMP=11.6,BA=5.32,STAT.A=12.5,ExtBa=13.19
24/09/2020,01:25:25,TEMP=11.8,BA=5.32,STAT.A=12.5,ExtBa=13.09
24/09/2020,01:29:13,TEMP=11.9,BA=5.32,STAT.A=12.5,ExtBa=13.02
24/09/2020,01:33:43,TEMP=12.0,BA=5.16,STAT.A=12.5,ExtBa=12.99
24/09/2020,01:39:08,TEMP=12.1,BA=5.16,STAT.A=12.5,ExtBa=13.00
24/09/2020,01:45:49,TEMP=12.2,BA=5.16,STAT.A=12.5,ExtBa=12.99
24/09/2020,01:54:14,TEMP=12.4,BA=5.32,STAT.B=12.5,ExtBa=13.01
24/09/2020,01:58:16,TEMP=12.2,BA=5.32,STAT.A=12.5,ExtBa=12.97
24/09/2020,02:02:46,TEMP=12.0,BA=5.24,STAT.A=12.5,ExtBa=12.96
24/09/2020,02:07:50,TEMP=11.9,BA=5.24,STAT.A=12.5,ExtBa=12.95
24/09/2020,02:13:36,TEMP=12.1,BA=5.28,STAT.A=12.5,ExtBa=12.94
24/09/2020,02:20:12,TEMP=12.5,BA=5.24,STAT.C=12.5,ExtBa=12.94
24/09/2020,02:30:29,TEMP=13.4,BA=5.16,STAT.b=12.5
24/09/2020,02:30:52,TEMP=13.5,BA=5.16,STAT.A=11.5,ExtBa=12.79
24/09/2020,02:36:50,TEMP=13.3,BA=5.16,STAT.A=12.5,ExtBa=12.87
24/09/2020,02:47:34,TEMP=13.5,BA=5.32,STAT.A=12.5,ExtBa=12.92
24/09/2020,03:00:42,TEMP=13.5,BA=5.32,STAT.A=12.5,ExtBa=12.96
24/09/2020,03:17:07,TEMP=13.8,BA=5.32,STAT.B=12.5,ExtBa=12.96
24/09/2020,03:27:11,TEMP=14.4,BA=5.16,STAT.b=12.5
24/09/2020,03:42:06,TEMP=14.4,BA=5.32,STAT.F,ExtBa=12.91
24/09/2020,03:52:26,TEMP=15.1,BA=5.16,STAT.b=12.5
24/09/2020,03:57:18,TEMP=14.9,BA=5.16,STAT.D=12.5,ExtBa=12.82
24/09/2020,04:12:05,TEMP=15.1,BA=5.32,STAT.D=12.5,ExtBa=12.89
24/09/2020,04:27:05,TEMP=15.5,BA=5.32,STAT.D=12.5,ExtBa=12.92
24/09/2020,04:42:07,TEMP=15.3,BA=5.32,STAT.F,ExtBa=12.91
24/09/2020,04:57:06,TEMP=15.4,BA=5.28,STAT.D=12.5,ExtBa=12.94
24/09/2020,05:12:06,TEMP=15.3,BA=5.32,STAT.D=12.5,ExtBa=12.95
24/09/2020,05:27:06,TEMP=15.1,BA=5.32,STAT.D=12.5,ExtBa=12.95
24/09/2020,05:42:08,TEMP=15.0,BA=5.32,STAT.F,ExtBa=12.94
24/09/2020,05:57:07,TEMP=14.7,BA=5.32,STAT.D=12.5,ExtBa=12.96
24/09/2020,05:58:43,TEMP=14.8,BA=5.32,STAT.b=12.5
24/09/2020,06:12:20,TEMP=15.1,BA=5.32,STAT.D=12.5,ExtBa=12.93
24/09/2020,06:27:07,TEMP=15.3,BA=5.32,STAT.D=12.5,ExtBa=12.95
24/09/2020,06:42:09,TEMP=15.5,BA=5.32,STAT.F,ExtBa=12.94
24/09/2020,06:43:43,TEMP=15.7,BA=5.32,STAT.b=12.5
24/09/2020,06:57:13,TEMP=16.0,BA=5.32,STAT.D=12.5,ExtBa=12.96
24/09/2020,06:58:47,TEMP=16.2,BA=5.32,STAT.b=12.5
24/09/2020,07:12:13,TEMP=15.8,BA=5.28,STAT.D=12.5,ExtBa=12.97
24/09/2020,07:13:46,TEMP=16.0,BA=5.28,STAT.b=12.5
24/09/2020,07:27:13,TEMP=16.4,BA=5.28,STAT.D=12.5,ExtBa=12.98
24/09/2020,07:28:46,TEMP=16.6,BA=5.28,STAT.b=12.5
24/09/2020,07:42:13,TEMP=15.7,BA=5.28,STAT.F,ExtBa=12.96
24/09/2020,07:43:45,TEMP=15.9,BA=5.28,STAT.b=12.5
24/09/2020,07:57:11,TEMP=15.7,BA=5.28,STAT.D=12.5,ExtBa=12.99
24/09/2020,07:58:43,TEMP=15.9,BA=5.28,STAT.b=12.5
24/09/2020,08:12:10,TEMP=15.8,BA=5.28,STAT.D=12.5,ExtBa=13.00
24/09/2020,08:13:42,TEMP=16.0,BA=5.28,STAT.b=12.5
24/09/2020,08:27:10,TEMP=15.9,BA=5.28,STAT.D=12.5,ExtBa=13.00
24/09/2020,08:28:42,TEMP=16.2,BA=5.28,STAT.b=12.5
24/09/2020,08:42:11,TEMP=15.9,BA=5.28,STAT.F,ExtBa=12.99
24/09/2020,08:43:42,TEMP=16.1,BA=5.28,STAT.b=12.5
24/09/2020,08:57:09,TEMP=15.9,BA=5.28,STAT.D=12.5,ExtBa=13.02
24/09/2020,08:58:40,TEMP=16.1,BA=5.28,STAT.b=12.5
24/09/2020,09:12:09,TEMP=15.9,BA=5.28,STAT.D=12.5,ExtBa=13.02
24/09/2020,09:13:40,TEMP=16.2,BA=5.28,STAT.b=12.5
24/09/2020,09:27:09,TEMP=15.9,BA=5.28,STAT.D=12.5,ExtBa=13.03
24/09/2020,09:28:40,TEMP=16.1,BA=5.28,STAT.b=12.5
24/09/2020,09:42:10,TEMP=15.7,BA=5.28,STAT.F,ExtBa=13.02
24/09/2020,09:43:40,TEMP=15.9,BA=5.28,STAT.b=12.5
24/09/2020,09:57:09,TEMP=15.6,BA=5.28,STAT.D=12.5,ExtBa=13.04
24/09/2020,09:58:39,TEMP=15.8,BA=5.28,STAT.b=12.5
24/09/2020,10:07:10,TEMP=15.5,BA=5.24,STAT.B=12.5,ExtBa=13.02
24/09/2020,10:08:40,TEMP=15.7,BA=5.24,STAT.b=12.5
24/09/2020,10:23:36,TEMP=14.7,BA=5.28,STAT.A=12.5,ExtBa=13.04
24/09/2020,10:25:06,TEMP=14.8,BA=5.28,STAT.b=12.5
24/09/2020,10:36:43,TEMP=14.1,BA=5.28,STAT.A=12.5,ExtBa=13.05
24/09/2020,10:38:12,TEMP=14.3,BA=5.28,STAT.b=12.5
24/09/2020,10:47:26,TEMP=13.9,BA=5.28,STAT.A=12.5,ExtBa=13.03
24/09/2020,10:48:56,TEMP=14.1,BA=5.28,STAT.b=12.5
24/09/2020,10:56:24,TEMP=14.1,BA=5.24,STAT.A=12.5,ExtBa=13.03
24/09/2020,10:57:52,TEMP=14.4,BA=5.24,STAT.b=12.5
24/09/2020,11:04:02,TEMP=14.1,BA=5.28,STAT.C=12.5,ExtBa=13.02
24/09/2020,11:05:31,TEMP=14.2,BA=5.28,STAT.b=12.5
24/09/2020,11:10:38,TEMP=14.1,BA=5.28,STAT.A=12.5,ExtBa=13.00
24/09/2020,11:12:07,TEMP=14.4,BA=5.28,STAT.b=12.5
24/09/2020,11:16:24,TEMP=14.2,BA=5.28,STAT.A=12.5,ExtBa=12.98
24/09/2020,11:17:53,TEMP=14.3,BA=5.28,STAT.b=12.5
24/09/2020,11:21:30,TEMP=14.0,BA=5.28,STAT.A=12.5,ExtBa=12.96
24/09/2020,11:22:59,TEMP=14.1,BA=5.28,STAT.b=12.5
24/09/2020,11:25:58,TEMP=13.7,BA=5.28,STAT.A=12.5,ExtBa=12.95
24/09/2020,11:27:27,TEMP=13.9,BA=5.28,STAT.b=12.5
24/09/2020,11:30:02,TEMP=13.6,BA=5.28,STAT.B=12.5,ExtBa=12.91
24/09/2020,11:31:31,TEMP=13.7,BA=5.16,STAT.b=12.5
24/09/2020,11:38:25,TEMP=13.2,BA=5.16,STAT.A=12.5,ExtBa=12.94
24/09/2020,11:39:54,TEMP=13.4,BA=5.16,STAT.b=12.5
24/09/2020,11:45:06,TEMP=13.1,BA=5.20,STAT.A=12.5,ExtBa=12.94
24/09/2020,11:46:35,TEMP=13.3,BA=5.20,STAT.b=12.5
24/09/2020,11:50:32,TEMP=13.1,BA=5.28,STAT.A=12.5,ExtBa=12.92
24/09/2020,11:52:01,TEMP=13.2,BA=5.28,STAT.b=12.5
24/09/2020,11:55:01,TEMP=13.0,BA=5.28,STAT.A=12.5,ExtBa=12.91
24/09/2020,11:56:29,TEMP=13.2,BA=5.28,STAT.b=12.5
24/09/2020,11:58:49,TEMP=13.0,BA=5.28,STAT.A=12.5,ExtBa=12.88
24/09/2020,12:00:17,TEMP=13.2,BA=5.12,STAT.b=12.5
24/09/2020,12:02:02,TEMP=13.0,BA=5.12,STAT.A=12.5,ExtBa=12.86
24/09/2020,12:03:30,TEMP=13.1,BA=5.12,STAT.b=12.5